createdAt,value
2023-04-27T00:00:25.647Z,50.10
2023-04-27T00:02:53.963Z,50.20
2023-04-27T00:05:22.434Z,50.10
2023-04-27T00:07:50.607Z,50.10
2023-04-27T00:10:20.457Z,50.10
2023-04-27T00:12:48.516Z,50.10
2023-04-27T00:15:16.566Z,50.10
2023-04-27T00:17:44.650Z,50.00
2023-04-27T00:20:13.114Z,50.00
2023-04-27T00:22:41.498Z,50.00
2023-04-27T00:25:10.213Z,49.90
2023-04-27T00:27:39.641Z,50.10
2023-04-27T00:30:09.065Z,50.10
2023-04-27T00:32:37.218Z,50.50
2023-04-27T00:35:05.585Z,50.50
2023-04-27T00:37:33.657Z,50.60
2023-04-27T00:40:01.700Z,50.60
2023-04-27T00:42:29.749Z,50.60
2023-04-27T00:45:00.361Z,50.50
2023-04-27T00:47:29.341Z,50.80
2023-04-27T00:49:57.568Z,50.80
2023-04-27T00:52:25.792Z,51.10
2023-04-27T00:54:54.230Z,51.10
2023-04-27T00:57:23.323Z,51.40
2023-04-27T00:59:51.381Z,51.50
2023-04-27T01:02:20.950Z,51.50
2023-04-27T01:04:50.502Z,51.40
2023-04-27T01:07:19.579Z,51.20
2023-04-27T01:09:47.717Z,51.30
2023-04-27T01:12:15.853Z,51.40
2023-04-27T01:14:43.938Z,51.50
2023-04-27T01:17:12.083Z,51.50
2023-04-27T01:19:41.579Z,51.40
2023-04-27T01:22:10.355Z,51.70
2023-04-27T01:24:39.824Z,51.80
2023-04-27T01:27:08.829Z,52.00
2023-04-27T01:29:36.924Z,51.90
2023-04-27T01:32:06.218Z,52.00
2023-04-27T01:34:34.503Z,52.10
2023-04-27T01:37:02.609Z,52.20
2023-04-27T01:39:30.668Z,52.50
2023-04-27T01:42:00.156Z,52.60
2023-04-27T01:44:28.257Z,52.90
2023-04-27T01:46:56.362Z,52.90
2023-04-27T01:49:24.455Z,53.10
2023-04-27T01:51:52.556Z,53.20
2023-04-27T01:54:20.598Z,53.40
2023-04-27T01:56:48.648Z,53.40
2023-04-27T01:59:18.143Z,53.40
2023-04-27T02:01:46.244Z,53.70
2023-04-27T02:04:15.077Z,53.80
2023-04-27T02:06:43.338Z,53.90
2023-04-27T02:09:11.518Z,54.00
2023-04-27T02:11:39.643Z,54.20
2023-04-27T02:14:07.697Z,54.30
2023-04-27T02:16:37.502Z,54.40
2023-04-27T02:19:07.026Z,54.60
2023-04-27T02:21:37.988Z,54.60
2023-04-27T02:24:06.506Z,54.70
2023-04-27T02:26:34.580Z,54.70
2023-04-27T02:29:03.730Z,54.90
2023-04-27T02:31:32.599Z,55.00
2023-04-27T02:34:02.185Z,55.20
2023-04-27T02:36:30.225Z,55.40
2023-04-27T02:38:58.318Z,55.40
2023-04-27T02:41:28.068Z,55.50
2023-04-27T02:43:56.141Z,55.60
2023-04-27T02:46:24.877Z,55.70
2023-04-27T02:48:52.964Z,55.90
2023-04-27T02:51:22.391Z,55.80
2023-04-27T02:53:50.483Z,56.00
2023-04-27T02:56:18.571Z,55.90
2023-04-27T02:58:47.976Z,56.00
2023-04-27T03:01:17.320Z,56.00
2023-04-27T03:03:48.807Z,56.10
2023-04-27T03:06:16.971Z,56.10
2023-04-27T03:08:46.420Z,55.90
2023-04-27T03:11:14.520Z,55.90
2023-04-27T03:13:43.166Z,55.80
2023-04-27T03:16:12.270Z,55.80
2023-04-27T03:18:41.304Z,55.80
2023-04-27T03:21:10.031Z,55.80
2023-04-27T03:23:38.734Z,55.80
2023-04-27T03:26:13.113Z,55.80
2023-04-27T03:28:41.952Z,56.00
2023-04-27T03:31:11.286Z,55.70
2023-04-27T03:33:40.178Z,55.50
2023-04-27T03:36:10.461Z,55.40
2023-04-27T03:38:38.820Z,55.40
2023-04-27T03:41:06.943Z,55.20
2023-04-27T03:43:36.378Z,55.30
2023-04-27T03:46:04.536Z,55.30
2023-04-27T03:48:32.669Z,55.30
2023-04-27T03:51:01.909Z,55.40
2023-04-27T03:53:30.032Z,55.50
2023-04-27T03:55:58.158Z,55.50
2023-04-27T03:58:26.240Z,55.60
2023-04-27T04:00:57.267Z,55.70
2023-04-27T04:03:25.573Z,55.80
2023-04-27T04:05:53.816Z,55.90
2023-04-27T04:08:21.916Z,56.00
2023-04-27T04:10:52.108Z,56.00
2023-04-27T04:13:20.649Z,55.90
2023-04-27T04:15:48.746Z,55.80
2023-04-27T04:18:18.221Z,55.90
2023-04-27T04:20:46.288Z,56.00
2023-04-27T04:23:14.442Z,55.90
2023-04-27T04:25:43.275Z,55.90
2023-04-27T04:28:11.368Z,55.90
2023-04-27T04:30:39.634Z,56.00
2023-04-27T04:33:08.744Z,56.00
2023-04-27T04:35:41.496Z,56.10
2023-04-27T04:38:09.646Z,56.30
2023-04-27T04:40:39.154Z,56.20
2023-04-27T04:43:07.645Z,56.20
2023-04-27T04:45:36.581Z,56.20
2023-04-27T04:48:05.094Z,56.30
2023-04-27T04:50:36.135Z,56.30
2023-04-27T04:53:05.612Z,56.30
2023-04-27T04:55:33.697Z,56.50
2023-04-27T04:58:01.822Z,56.50
2023-04-27T05:00:30.163Z,56.50
2023-04-27T05:02:58.582Z,56.60
2023-04-27T05:05:26.876Z,56.60
2023-04-27T05:07:55.138Z,56.60
2023-04-27T05:10:24.568Z,56.60
2023-04-27T05:12:52.639Z,56.70
2023-04-27T05:15:20.976Z,56.70
2023-04-27T05:17:49.089Z,56.90
2023-04-27T05:20:17.441Z,57.00
2023-04-27T05:22:45.496Z,57.10
2023-04-27T05:25:13.699Z,57.20
2023-04-27T05:27:43.137Z,57.50
2023-04-27T05:30:12.127Z,57.70
2023-04-27T05:32:40.250Z,57.50
2023-04-27T05:35:08.984Z,57.70
2023-04-27T05:37:37.090Z,57.90
2023-04-27T05:40:09.235Z,58.00
2023-04-27T05:42:37.713Z,58.00
2023-04-27T05:45:08.811Z,57.90
2023-04-27T05:47:37.138Z,57.90
2023-04-27T05:50:06.247Z,57.70
2023-04-27T05:52:36.346Z,57.50
2023-04-27T05:55:06.710Z,57.30
2023-04-27T05:57:35.331Z,57.10
2023-04-27T06:00:07.325Z,57.20
2023-04-27T06:02:36.906Z,56.80
2023-04-27T06:05:05.332Z,56.70
2023-04-27T06:07:33.786Z,56.60
2023-04-27T06:10:01.850Z,56.30
2023-04-27T06:12:29.912Z,56.40
2023-04-27T06:14:57.991Z,56.20
2023-04-27T06:17:26.184Z,56.00
2023-04-27T06:19:55.666Z,56.00
2023-04-27T06:22:23.767Z,55.70
2023-04-27T06:24:51.847Z,55.50
2023-04-27T06:27:19.911Z,55.50
2023-04-27T06:29:49.160Z,55.20
2023-04-27T06:32:17.307Z,55.10
2023-04-27T06:34:45.457Z,54.90
2023-04-27T06:37:15.480Z,54.80
2023-04-27T06:39:44.749Z,54.70
2023-04-27T06:42:12.927Z,54.50
2023-04-27T06:44:41.029Z,54.40
2023-04-27T06:47:09.375Z,54.00
2023-04-27T06:49:37.469Z,53.60
2023-04-27T06:52:06.335Z,53.30
2023-04-27T06:54:35.815Z,53.30
2023-04-27T06:57:03.861Z,53.30
2023-04-27T06:59:31.937Z,53.20
2023-04-27T07:02:00.423Z,53.40
2023-04-27T07:04:29.004Z,53.40
2023-04-27T07:06:57.351Z,53.30
2023-04-27T07:09:27.836Z,53.10
2023-04-27T07:11:58.855Z,52.70
2023-04-27T07:14:27.398Z,52.50
2023-04-27T07:16:55.953Z,52.40
2023-04-27T07:19:24.056Z,52.30
2023-04-27T07:21:52.122Z,52.40
2023-04-27T07:24:20.604Z,52.70
2023-04-27T07:26:48.984Z,52.30
2023-04-27T07:29:27.149Z,52.10
2023-04-27T07:31:56.273Z,51.80
2023-04-27T07:34:24.510Z,51.60
2023-04-27T07:36:54.291Z,51.40
2023-04-27T07:39:23.758Z,51.30
2023-04-27T07:41:51.931Z,51.60
2023-04-27T07:44:21.682Z,51.30
2023-04-27T07:46:50.173Z,51.10
2023-04-27T07:49:18.375Z,51.10
2023-04-27T07:51:49.233Z,51.00
2023-04-27T07:54:17.332Z,50.90
2023-04-27T07:56:45.408Z,50.90
2023-04-27T07:59:15.017Z,50.60
2023-04-27T08:01:44.854Z,50.60
2023-04-27T08:04:13.795Z,50.10
2023-04-27T08:06:42.368Z,50.10
2023-04-27T08:09:11.472Z,49.70
2023-04-27T08:11:39.847Z,49.60
2023-04-27T08:14:13.493Z,49.50
2023-04-27T08:16:42.634Z,48.30
2023-04-27T08:19:13.067Z,48.30
2023-04-27T08:21:41.372Z,47.40
2023-04-27T08:24:09.463Z,48.40
2023-04-27T08:26:37.603Z,48.30
2023-04-27T08:29:15.400Z,47.70
2023-04-27T08:31:52.986Z,47.50
2023-04-27T08:34:23.805Z,46.70
2023-04-27T08:36:51.896Z,46.40
2023-04-27T08:39:20.014Z,46.70
2023-04-27T08:41:48.115Z,47.10
2023-04-27T08:44:16.505Z,46.90
2023-04-27T08:46:44.730Z,46.20
2023-04-27T08:49:15.157Z,46.40
2023-04-27T08:51:46.341Z,45.30
2023-04-27T08:54:14.421Z,45.20
2023-04-27T08:56:42.511Z,45.30
2023-04-27T08:59:16.739Z,45.10
2023-04-27T09:01:46.898Z,45.30
2023-04-27T09:04:15.867Z,45.20
2023-04-27T09:06:45.516Z,44.60
2023-04-27T09:09:23.591Z,44.50
2023-04-27T09:11:51.877Z,44.40
2023-04-27T09:14:21.740Z,44.90
2023-04-27T09:16:59.882Z,44.70
2023-04-27T09:19:29.702Z,43.60
2023-04-27T09:22:11.132Z,43.70
2023-04-27T09:24:39.392Z,41.90
2023-04-27T09:27:08.987Z,42.60
2023-04-27T09:29:38.816Z,42.30
2023-04-27T09:32:17.638Z,41.70
2023-04-27T09:34:46.225Z,42.30
2023-04-27T09:37:15.849Z,42.20
2023-04-27T09:39:44.241Z,40.90
2023-04-27T09:42:13.866Z,41.00
2023-04-27T09:44:41.994Z,41.40
2023-04-27T09:47:11.713Z,41.30
2023-04-27T09:49:39.802Z,40.60
2023-04-27T09:52:07.997Z,40.60
2023-04-27T09:54:38.394Z,40.40
2023-04-27T09:57:15.999Z,40.20
2023-04-27T10:00:02.957Z,39.30
2023-04-27T10:02:52.254Z,38.90
2023-04-27T10:05:38.756Z,40.00
2023-04-27T10:08:07.515Z,37.90
2023-04-27T10:10:48.426Z,39.30
2023-04-27T10:13:23.847Z,38.10
2023-04-27T10:15:52.681Z,38.40
2023-04-27T10:18:28.619Z,39.00
2023-04-27T10:20:56.765Z,38.00
2023-04-27T10:23:26.293Z,38.10
2023-04-27T10:25:57.255Z,37.20
2023-04-27T10:28:25.428Z,37.40
2023-04-27T10:30:53.607Z,37.00
2023-04-27T10:33:24.117Z,36.90
2023-04-27T10:35:57.601Z,36.30
2023-04-27T10:38:30.715Z,36.20
2023-04-27T10:41:02.236Z,36.40
2023-04-27T10:43:31.996Z,36.10
2023-04-27T10:46:11.614Z,36.30
2023-04-27T10:48:40.814Z,35.30
2023-04-27T10:51:09.347Z,35.90
2023-04-27T10:53:37.913Z,35.80
2023-04-27T10:56:08.128Z,35.60
2023-04-27T10:58:48.197Z,35.70
2023-04-27T11:01:25.643Z,35.80
2023-04-27T11:03:57.152Z,35.30
2023-04-27T11:06:25.698Z,35.20
2023-04-27T11:08:53.816Z,35.60
2023-04-27T11:11:24.359Z,35.10
2023-04-27T11:13:53.333Z,34.80
2023-04-27T11:16:21.498Z,35.20
2023-04-27T11:18:49.641Z,34.70
2023-04-27T11:21:20.426Z,34.60
2023-04-27T11:23:48.773Z,34.60
2023-04-27T11:26:19.463Z,34.80
2023-04-27T11:29:00.213Z,34.70
2023-04-27T11:31:29.097Z,34.00
2023-04-27T11:33:57.255Z,34.90
2023-04-27T11:36:27.205Z,34.80
2023-04-27T11:39:00.056Z,34.40
2023-04-27T11:41:35.727Z,33.40
2023-04-27T11:44:09.832Z,33.30
2023-04-27T11:46:38.622Z,33.60
2023-04-27T11:49:08.732Z,34.00
2023-04-27T11:51:37.739Z,33.40
2023-04-27T11:54:07.319Z,33.30
2023-04-27T11:56:37.416Z,33.40
2023-04-27T11:59:06.127Z,33.10
2023-04-27T12:01:38.354Z,32.80
2023-04-27T12:04:06.946Z,32.90
2023-04-27T12:06:35.414Z,33.40
2023-04-27T12:09:05.294Z,34.00
2023-04-27T12:11:34.375Z,33.70
2023-04-27T12:14:04.116Z,33.40
2023-04-27T12:16:32.275Z,33.90
2023-04-27T12:19:01.936Z,34.20
2023-04-27T12:21:30.115Z,34.40
2023-04-27T12:23:58.192Z,34.90
2023-04-27T12:26:26.655Z,35.10
2023-04-27T12:28:54.733Z,34.80
2023-04-27T12:31:26.872Z,34.70
2023-04-27T12:33:55.961Z,35.20
2023-04-27T12:36:27.223Z,35.30
2023-04-27T12:38:58.880Z,35.10
2023-04-27T12:41:27.158Z,35.10
2023-04-27T12:43:55.258Z,36.00
2023-04-27T12:46:23.409Z,36.10
2023-04-27T12:48:51.642Z,35.70
2023-04-27T12:51:19.746Z,35.40
2023-04-27T12:53:49.209Z,35.10
2023-04-27T12:56:17.272Z,34.50
2023-04-27T12:58:45.637Z,34.50
2023-04-27T13:01:15.658Z,34.10
2023-04-27T13:03:44.119Z,33.70
2023-04-27T13:06:12.278Z,33.00
2023-04-27T13:08:41.645Z,32.60
2023-04-27T13:11:11.227Z,31.70
2023-04-27T13:13:39.558Z,31.20
2023-04-27T13:16:08.392Z,31.10
2023-04-27T13:18:36.823Z,30.90
2023-04-27T13:21:05.631Z,30.90
2023-04-27T13:23:33.883Z,30.90
2023-04-27T13:26:02.302Z,30.90
2023-04-27T13:28:31.784Z,31.10
2023-04-27T13:31:00.449Z,31.30
2023-04-27T13:33:28.743Z,30.60
2023-04-27T13:35:56.864Z,30.80
2023-04-27T13:38:24.937Z,31.40
2023-04-27T13:40:53.016Z,30.80
2023-04-27T13:43:21.128Z,31.30
2023-04-27T13:45:52.412Z,31.30
2023-04-27T13:48:20.700Z,31.20
2023-04-27T13:50:48.851Z,31.20
2023-04-27T13:53:17.244Z,31.20
2023-04-27T13:55:45.516Z,31.00
2023-04-27T13:58:14.048Z,31.50
2023-04-27T14:00:42.284Z,31.30
2023-04-27T14:03:12.007Z,32.10
2023-04-27T14:05:40.218Z,31.30
2023-04-27T14:08:08.273Z,31.50
2023-04-27T14:10:37.519Z,31.60
2023-04-27T14:13:06.051Z,31.80
2023-04-27T14:15:36.959Z,32.10
2023-04-27T14:18:06.364Z,32.20
2023-04-27T14:20:36.139Z,32.10
2023-04-27T14:23:06.095Z,32.10
2023-04-27T14:25:34.815Z,32.00
2023-04-27T14:28:04.537Z,31.90
2023-04-27T14:30:33.041Z,31.90
2023-04-27T14:33:01.399Z,32.20
2023-04-27T14:35:29.937Z,31.80
2023-04-27T14:38:02.369Z,32.00
2023-04-27T14:40:30.860Z,31.90
2023-04-27T14:42:59.523Z,32.10
2023-04-27T14:45:33.852Z,32.40
2023-04-27T14:48:05.343Z,32.90
2023-04-27T14:50:33.470Z,33.00
2023-04-27T14:53:02.941Z,33.20
2023-04-27T14:55:31.569Z,33.40
2023-04-27T14:57:59.634Z,33.40
2023-04-27T15:00:27.935Z,33.60
2023-04-27T15:02:56.119Z,34.00
2023-04-27T15:05:24.450Z,34.10
2023-04-27T15:07:52.524Z,33.80
2023-04-27T15:10:22.070Z,33.80
2023-04-27T15:12:50.146Z,33.90
2023-04-27T15:15:18.350Z,34.30
2023-04-27T15:17:46.508Z,34.00
2023-04-27T15:20:14.976Z,34.20
2023-04-27T15:22:43.106Z,34.20
2023-04-27T15:25:11.268Z,34.10
2023-04-27T15:27:40.744Z,34.00
2023-04-27T15:30:09.644Z,33.80
2023-04-27T15:32:37.941Z,33.80
2023-04-27T15:35:06.789Z,34.00
2023-04-27T15:37:36.737Z,33.80
2023-04-27T15:40:07.406Z,33.50
2023-04-27T15:42:35.750Z,33.50
2023-04-27T15:45:07.457Z,34.20
2023-04-27T15:47:36.789Z,34.10
2023-04-27T15:50:05.404Z,34.00
2023-04-27T15:52:33.955Z,34.30
2023-04-27T15:55:04.214Z,34.60
2023-04-27T15:57:32.352Z,34.90
2023-04-27T16:00:00.532Z,34.80
2023-04-27T16:02:30.644Z,35.10
2023-04-27T16:04:58.800Z,35.30
2023-04-27T16:07:26.888Z,35.50
2023-04-27T16:09:54.989Z,35.70
2023-04-27T16:12:23.199Z,36.00
2023-04-27T16:14:51.958Z,36.00
2023-04-27T16:17:20.041Z,36.10
2023-04-27T16:19:49.534Z,36.50
2023-04-27T16:22:18.053Z,36.50
2023-04-27T16:24:46.273Z,36.30
2023-04-27T16:27:14.429Z,36.40
2023-04-27T16:29:42.493Z,36.60
2023-04-27T16:32:11.081Z,36.80
2023-04-27T16:34:41.359Z,36.60
2023-04-27T16:37:11.291Z,36.80
2023-04-27T16:39:39.378Z,36.90
2023-04-27T16:42:07.929Z,37.40
2023-04-27T16:44:36.258Z,37.40
2023-04-27T16:47:04.468Z,37.10
2023-04-27T16:49:32.646Z,37.20
2023-04-27T16:52:00.733Z,37.20
2023-04-27T16:54:30.537Z,37.40
2023-04-27T16:56:58.653Z,37.60
2023-04-27T16:59:26.843Z,37.50
2023-04-27T17:01:55.362Z,38.20
2023-04-27T17:04:23.606Z,38.00
2023-04-27T17:06:52.241Z,37.90
2023-04-27T17:09:20.310Z,38.00
2023-04-27T17:11:49.756Z,38.50
2023-04-27T17:14:19.752Z,38.50
2023-04-27T17:16:47.852Z,38.40
2023-04-27T17:19:16.105Z,38.30
2023-04-27T17:21:44.312Z,38.60
2023-04-27T17:24:12.871Z,38.50
2023-04-27T17:26:41.186Z,38.60
2023-04-27T17:29:11.362Z,38.70
2023-04-27T17:31:39.526Z,38.70
2023-04-27T17:34:07.732Z,39.10
2023-04-27T17:36:35.812Z,38.90
2023-04-27T17:39:04.646Z,39.20
2023-04-27T17:41:34.288Z,39.20
2023-04-27T17:44:04.629Z,39.50
2023-04-27T17:46:34.280Z,39.80
2023-04-27T17:49:02.496Z,40.00
2023-04-27T17:51:30.818Z,40.30
2023-04-27T17:53:59.147Z,40.30
2023-04-27T17:56:27.226Z,40.30
2023-04-27T17:58:55.393Z,40.40
2023-04-27T18:01:23.539Z,40.60
2023-04-27T18:03:53.320Z,40.60
2023-04-27T18:06:21.617Z,40.60
2023-04-27T18:08:50.482Z,40.60
2023-04-27T18:11:18.833Z,41.10
2023-04-27T18:13:47.047Z,40.80
2023-04-27T18:16:15.163Z,40.70
2023-04-27T18:18:43.346Z,40.70
2023-04-27T18:21:12.932Z,40.70
2023-04-27T18:23:41.372Z,40.90
2023-04-27T18:26:11.527Z,41.00
2023-04-27T18:28:41.771Z,41.10
2023-04-27T18:31:18.233Z,41.10
2023-04-27T18:33:46.766Z,41.20
2023-04-27T18:36:16.294Z,41.00
2023-04-27T18:38:44.566Z,41.10
2023-04-27T18:41:12.799Z,41.20
2023-04-27T18:43:40.931Z,41.20
2023-04-27T18:46:09.149Z,41.30
2023-04-27T18:48:37.682Z,41.40
2023-04-27T18:51:08.312Z,41.60
2023-04-27T18:53:39.396Z,41.60
2023-04-27T18:56:10.623Z,41.60
2023-04-27T18:58:38.976Z,41.80
2023-04-27T19:01:08.333Z,41.90
2023-04-27T19:03:37.086Z,41.90
2023-04-27T19:06:05.508Z,42.00
2023-04-27T19:08:34.023Z,42.10
2023-04-27T19:11:03.880Z,42.30
2023-04-27T19:13:33.410Z,42.30
2023-04-27T19:16:01.608Z,42.30
2023-04-27T19:18:29.794Z,42.50
2023-04-27T19:20:59.008Z,42.50
2023-04-27T19:23:27.159Z,42.70
2023-04-27T19:25:57.693Z,43.10
2023-04-27T19:28:35.679Z,43.10
2023-04-27T19:31:04.124Z,43.40
2023-04-27T19:33:32.498Z,43.60
2023-04-27T19:36:00.892Z,43.60
2023-04-27T19:38:29.560Z,43.40
2023-04-27T19:40:57.741Z,43.50
2023-04-27T19:43:27.884Z,43.90
2023-04-27T19:45:57.394Z,44.00
2023-04-27T19:48:26.258Z,44.10
2023-04-27T19:50:54.792Z,44.10
2023-04-27T19:53:22.912Z,44.20
2023-04-27T19:55:51.406Z,44.20
2023-04-27T19:58:19.555Z,44.20
2023-04-27T20:00:47.699Z,44.20
2023-04-27T20:03:17.406Z,44.10
2023-04-27T20:05:45.934Z,44.20
2023-04-27T20:08:14.300Z,44.20
2023-04-27T20:10:42.523Z,44.30
2023-04-27T20:13:10.815Z,44.50
2023-04-27T20:15:39.078Z,44.70
2023-04-27T20:18:07.234Z,44.80
2023-04-27T20:20:37.219Z,44.90
2023-04-27T20:23:06.764Z,45.20
2023-04-27T20:25:35.272Z,45.30
2023-04-27T20:28:03.442Z,45.30
2023-04-27T20:30:31.851Z,45.30
2023-04-27T20:33:01.389Z,45.30
2023-04-27T20:35:29.595Z,45.40
2023-04-27T20:38:00.488Z,45.50
2023-04-27T20:40:29.463Z,45.50
2023-04-27T20:42:57.965Z,45.50
2023-04-27T20:45:26.584Z,46.20
2023-04-27T20:47:55.208Z,45.80
2023-04-27T20:50:23.666Z,45.80
2023-04-27T20:52:52.084Z,46.00
2023-04-27T20:55:22.256Z,46.60
2023-04-27T20:57:52.225Z,46.10
2023-04-27T21:00:20.795Z,46.20
2023-04-27T21:02:49.259Z,46.30
2023-04-27T21:05:17.569Z,46.30
2023-04-27T21:07:45.792Z,46.30
2023-04-27T21:10:13.898Z,46.40
2023-04-27T21:12:43.377Z,46.60
2023-04-27T21:15:12.019Z,46.60
2023-04-27T21:17:40.726Z,46.50
2023-04-27T21:20:11.127Z,46.50
2023-04-27T21:22:39.442Z,46.50
2023-04-27T21:25:08.261Z,46.40
2023-04-27T21:27:37.678Z,46.60
2023-04-27T21:30:08.803Z,46.70
2023-04-27T21:32:37.072Z,46.80
2023-04-27T21:35:05.926Z,46.70
2023-04-27T21:37:34.185Z,47.10
2023-04-27T21:40:02.895Z,47.10
2023-04-27T21:42:31.010Z,46.90
2023-04-27T21:44:59.185Z,46.90
2023-04-27T21:47:28.653Z,46.90
2023-04-27T21:49:56.898Z,47.20
2023-04-27T21:52:24.984Z,47.30
2023-04-27T21:54:53.099Z,47.50
2023-04-27T21:57:21.450Z,47.50
2023-04-27T21:59:49.546Z,47.60
2023-04-27T22:02:17.688Z,47.50
2023-04-27T22:04:49.180Z,47.60
2023-04-27T22:07:17.353Z,47.70
2023-04-27T22:09:45.876Z,47.70
2023-04-27T22:12:13.968Z,48.20
2023-04-27T22:14:42.875Z,48.00
2023-04-27T22:17:12.549Z,48.00
2023-04-27T22:19:41.438Z,47.70
2023-04-27T22:22:10.969Z,48.10
2023-04-27T22:24:39.313Z,48.10
2023-04-27T22:27:07.395Z,48.00
2023-04-27T22:29:35.465Z,47.90
2023-04-27T22:32:04.122Z,47.80
2023-04-27T22:34:33.052Z,47.80
2023-04-27T22:37:02.067Z,48.60
2023-04-27T22:39:32.340Z,48.20
2023-04-27T22:42:00.492Z,48.30
2023-04-27T22:44:28.648Z,48.50
2023-04-27T22:46:57.068Z,48.80
2023-04-27T22:49:25.254Z,49.00
2023-04-27T22:51:54.045Z,49.10
2023-04-27T22:54:22.165Z,49.30
2023-04-27T22:56:51.897Z,49.40
2023-04-27T22:59:22.724Z,49.60
2023-04-27T23:01:51.682Z,49.50
2023-04-27T23:04:21.033Z,49.50
2023-04-27T23:06:49.693Z,49.50
2023-04-27T23:09:17.746Z,49.50
2023-04-27T23:11:45.866Z,48.90
2023-04-27T23:14:18.170Z,48.80
2023-04-27T23:16:47.441Z,48.70
2023-04-27T23:19:17.203Z,48.60
2023-04-27T23:21:45.449Z,48.50
2023-04-27T23:24:13.753Z,48.50
2023-04-27T23:26:42.118Z,48.60
2023-04-27T23:29:10.222Z,48.70
2023-04-27T23:31:39.661Z,48.80
2023-04-27T23:34:07.806Z,49.00
2023-04-27T23:36:35.885Z,49.00
2023-04-27T23:39:04.199Z,49.70
2023-04-27T23:41:32.331Z,49.60
2023-04-27T23:44:01.476Z,49.50
2023-04-27T23:46:29.608Z,49.70
2023-04-27T23:48:59.104Z,50.00
2023-04-27T23:51:27.228Z,50.40
2023-04-27T23:53:55.363Z,50.10
2023-04-27T23:56:24.330Z,50.40
2023-04-27T23:58:52.538Z,50.70
